Time;durP1;ratioP1;P1;durP2;ratioP2;P2;SDS_P1;SDS_P2;PMS_P1;PMS_P2;Temp;Humidity;BMP_temperature;BMP_pressure;BME280_temperature;BME280_humidity;BME280_pressure;Samples;Min_cycle;Max_cycle;Signal;HPM_P1;HPM_P2
2022/02/26 00:01:35;;;;;;;32.40;8.95;;;6.90;99.90;;;7.24;75.81;103124.00;5093777;28;20044;-69
2022/02/26 00:04:04;;;;;;;25.52;9.57;;;7.00;99.90;;;7.23;75.79;103127.50;5093937;28;20067;-71
2022/02/26 00:06:33;;;;;;;33.33;9.60;;;7.00;99.90;;;7.29;75.29;103126.88;5093712;28;20068;-72
2022/02/26 00:09:01;;;;;;;27.90;9.48;;;7.00;99.90;;;7.30;75.34;103113.75;5093806;28;20048;-71
2022/02/26 00:11:32;;;;;;;20.95;8.98;;;7.00;99.90;;;7.18;74.99;103121.09;5093494;28;20090;-72
2022/02/26 00:14:01;;;;;;;24.25;9.10;;;7.00;99.90;;;7.18;75.03;103125.47;5093543;28;20393;-73
2022/02/26 00:16:34;;;;;;;22.13;8.80;;;7.00;99.90;;;7.08;74.75;103123.25;5093577;28;20512;-74
2022/02/26 00:19:04;;;;;;;23.23;9.23;;;6.90;99.90;;;6.83;75.30;103088.75;5093693;28;20040;-73
2022/02/26 00:21:32;;;;;;;27.73;10.32;;;6.80;99.90;;;6.97;75.45;103124.47;5093261;28;20169;-74
2022/02/26 00:24:01;;;;;;;30.70;9.88;;;6.70;99.90;;;6.89;75.94;103115.34;5093351;28;20118;-73
2022/02/26 00:26:30;;;;;;;28.95;9.80;;;6.70;99.90;;;6.82;75.78;103114.16;5093456;28;20473;-74
2022/02/26 00:28:59;;;;;;;26.33;8.73;;;6.60;99.90;;;6.77;76.05;103113.06;5093490;28;20128;-74
2022/02/26 00:31:27;;;;;;;26.40;8.38;;;6.60;99.90;;;6.81;75.94;103119.34;5093291;28;20305;-74
2022/02/26 00:33:58;;;;;;;25.20;9.07;;;6.50;99.90;;;6.72;76.17;103111.00;5093812;28;20118;-73
2022/02/26 00:36:26;;;;;;;23.45;9.45;;;6.50;99.90;;;6.66;76.22;103118.63;5093176;28;20043;-73
2022/02/26 00:38:55;;;;;;;21.45;8.73;;;6.50;99.90;;;6.59;75.67;103108.63;5093418;28;20105;-74
2022/02/26 00:41:25;;;;;;;28.45;10.15;;;6.40;99.90;;;6.65;76.35;103140.47;5075190;28;20059;-73
2022/02/26 00:43:55;;;;;;;19.67;8.85;;;6.40;99.90;;;6.48;75.39;103123.00;5075361;28;20121;-74
2022/02/26 00:46:24;;;;;;;22.10;8.88;;;6.30;99.90;;;6.55;75.86;103144.41;5093484;28;20046;-73
2022/02/26 00:51:39;;;;;;;20.45;8.25;;;6.20;99.90;;;6.05;76.77;103141.91;5093410;28;20398;-74
2022/02/26 00:54:07;;;;;;;30.93;9.27;;;5.80;99.90;;;5.77;78.52;103143.91;5093616;28;20044;-73
2022/02/26 00:56:36;;;;;;;19.95;8.57;;;5.50;99.90;;;5.84;79.84;103111.94;5075006;28;20064;-74
2022/02/26 00:59:06;;;;;;;25.95;10.15;;;5.60;99.90;;;5.95;80.11;103131.78;5093158;28;20044;-73
2022/02/26 01:01:35;;;;;;;28.58;9.23;;;5.60;99.90;;;6.03;80.68;103130.44;5093509;28;20044;-73
2022/02/26 01:04:05;;;;;;;32.13;9.98;;;5.60;99.90;;;6.08;80.38;103123.66;5093440;28;20050;-73
2022/02/26 01:06:34;;;;;;;19.15;9.23;;;5.80;99.90;;;5.85;80.05;103097.97;5093310;28;20070;-73
2022/02/26 01:09:05;;;;;;;20.52;8.55;;;5.80;99.90;;;6.05;80.77;103127.88;5093144;28;20105;-74
2022/02/26 01:11:34;;;;;;;25.17;9.50;;;5.80;99.90;;;5.71;82.12;103104.22;5092979;28;20063;-74
2022/02/26 01:14:02;;;;;;;23.92;9.05;;;5.60;99.90;;;5.99;82.48;103133.72;5093193;28;20127;-74
2022/02/26 01:16:36;;;;;;;28.65;9.98;;;5.70;99.90;;;6.14;82.28;103129.22;5093436;28;20091;-74
2022/02/26 01:19:06;;;;;;;34.70;9.73;;;5.80;99.90;;;3.79;82.44;102692.28;5093185;28;20396;-74
2022/02/26 01:21:34;;;;;;;28.40;9.10;;;5.90;99.90;;;5.95;82.62;103087.13;5092865;28;20048;-74
2022/02/26 01:24:03;;;;;;;25.05;8.65;;;5.90;99.90;;;5.59;83.39;103074.75;5092812;28;20429;-73
2022/02/26 01:26:32;;;;;;;29.25;8.48;;;5.60;99.90;;;5.90;83.91;103111.34;5096677;28;20047;-73
2022/02/26 01:29:03;;;;;;;31.52;8.63;;;5.60;99.90;;;5.90;84.04;103107.00;5078806;28;20048;-73
2022/02/26 01:31:32;;;;;;;30.48;8.77;;;5.70;99.90;;;6.09;84.29;103120.25;5097182;28;20093;-73
2022/02/26 01:34:04;;;;;;;24.65;8.68;;;5.80;99.90;;;6.23;83.83;103129.69;5096726;28;20067;-73
2022/02/26 01:36:34;;;;;;;24.20;8.82;;;6.00;99.90;;;6.33;83.66;103138.91;5096891;28;20051;-73
2022/02/26 01:39:05;;;;;;;22.40;8.23;;;6.00;99.90;;;6.40;82.93;103138.41;5096367;28;20048;-73
2022/02/26 01:41:33;;;;;;;;;;;6.10;99.90;;;6.35;82.58;103130.28;5096852;28;20028;-73
2022/02/26 01:44:04;;;;;;;28.00;8.50;;;6.20;99.90;;;6.60;82.17;103150.78;5078526;28;19951;-73
2022/02/26 01:46:35;;;;;;;31.08;9.05;;;6.30;99.90;;;6.50;81.76;103131.88;5096391;28;20044;-73
2022/02/26 01:49:07;;;;;;;22.17;7.82;;;6.40;99.90;;;6.67;81.26;103145.00;5078612;28;20131;-73
2022/02/26 01:51:36;;;;;;;20.70;8.30;;;6.40;99.90;;;6.58;80.50;103144.53;5078632;28;20474;-73
2022/02/26 01:54:07;;;;;;;23.08;8.13;;;6.40;99.90;;;6.59;79.98;103154.25;5096334;28;20500;-73
2022/02/26 01:56:35;;;;;;;21.55;9.00;;;6.40;99.90;;;6.46;79.15;103159.75;5096393;28;20410;-73
2022/02/26 01:59:04;;;;;;;24.35;8.55;;;6.30;99.90;;;6.39;78.93;103149.72;5096073;28;20423;-74
2022/02/26 02:01:33;;;;;;;22.52;8.15;;;6.20;99.90;;;5.99;78.26;103138.97;5096127;28;20040;-73
2022/02/26 02:04:02;;;;;;;26.83;8.60;;;5.80;99.90;;;6.03;79.95;103126.91;5096304;28;20067;-73
2022/02/26 02:06:33;;;;;;;24.37;8.60;;;5.70;99.90;;;6.12;80.09;103130.88;5096253;28;20047;-73
2022/02/26 02:09:02;;;;;;;21.08;8.70;;;5.80;99.90;;;6.21;79.89;103131.31;5095980;28;20040;-73
2022/02/26 02:11:36;;;;;;;21.80;9.05;;;5.90;99.90;;;6.31;79.41;103127.41;5095830;28;20401;-74
2022/02/26 02:14:05;;;;;;;20.17;8.05;;;6.00;99.90;;;6.16;79.30;103101.31;5096022;28;20078;-73
2022/02/26 02:16:36;;;;;;;21.52;8.82;;;6.10;99.90;;;6.41;78.66;103140.19;5096027;28;20048;-74
2022/02/26 02:19:06;;;;;;;23.15;8.32;;;6.20;99.90;;;6.46;78.67;103140.44;5095952;28;20047;-73
2022/02/26 02:21:37;;;;;;;23.90;8.93;;;6.20;99.90;;;6.47;78.86;103142.22;5095706;28;20047;-74
2022/02/26 02:24:09;;;;;;;22.45;7.53;;;6.30;99.90;;;6.54;78.91;103145.25;5096005;28;20048;-73
2022/02/26 02:26:38;;;;;;;19.35;7.63;;;6.30;99.90;;;6.52;78.88;103141.63;5095587;28;20501;-74
2022/02/26 02:29:07;;;;;;;20.30;7.22;;;6.30;99.90;;;6.48;78.69;103130.88;5077431;28;20048;-74
2022/02/26 02:31:36;;;;;;;15.38;7.18;;;6.30;99.90;;;6.52;78.42;103153.88;5095812;28;20478;-73
2022/02/26 02:34:04;;;;;;;9.10;6.75;;;6.30;99.90;;;5.88;78.02;103056.13;5095432;28;20604;-73
2022/02/26 02:36:43;;;;;;;11.50;6.13;;;6.20;99.90;;;6.17;77.68;103124.16;5095222;28;20040;-74
2022/02/26 02:39:14;;;;;;;16.33;7.73;;;6.20;99.90;;;6.29;77.34;103158.00;5095695;28;20086;-73
2022/02/26 02:41:43;;;;;;;17.88;7.40;;;6.10;99.90;;;6.24;77.68;103167.38;5095603;28;20044;-74
2022/02/26 02:44:13;;;;;;;15.47;6.97;;;6.00;99.90;;;6.17;77.59;103158.31;5095200;28;20497;-73
2022/02/26 02:46:43;;;;;;;16.63;7.15;;;6.00;99.90;;;6.28;77.07;103180.75;5095302;28;20466;-73
2022/02/26 02:49:13;;;;;;;17.63;7.82;;;6.00;99.90;;;6.24;77.17;103172.63;5095369;28;20044;-73
2022/02/26 02:51:41;;;;;;;19.87;9.30;;;6.00;99.90;;;6.23;77.43;103181.34;5095342;28;20052;-73
2022/02/26 02:54:09;;;;;;;19.45;8.65;;;6.00;99.90;;;6.29;77.86;103179.03;5077152;28;20131;-74
2022/02/26 02:56:39;;;;;;;11.13;7.03;;;6.00;99.90;;;6.08;76.99;103154.28;5095008;28;20060;-74
2022/02/26 02:59:08;;;;;;;10.50;6.38;;;6.00;99.90;;;5.68;76.29;103167.09;5094913;28;20044;-74
2022/02/26 03:01:36;;;;;;;12.07;7.07;;;5.60;99.90;;;5.77;77.42;103182.44;5095113;28;20173;-73
2022/02/26 03:04:05;;;;;;;18.70;9.33;;;5.60;99.90;;;5.90;77.63;103177.00;5094837;28;20044;-74
2022/02/26 03:06:34;;;;;;;20.03;9.20;;;5.60;99.90;;;5.83;78.17;103144.28;5095083;28;20048;-73
2022/02/26 03:09:02;;;;;;;22.43;8.60;;;5.70;99.90;;;6.03;78.70;103146.19;5094640;28;20036;-73
2022/02/26 03:11:31;;;;;;;23.63;9.00;;;5.90;99.90;;;6.20;79.14;103175.94;5095056;28;20044;-74
2022/02/26 03:14:01;;;;;;;25.13;9.27;;;5.90;99.90;;;6.26;79.06;103179.78;5094698;28;20044;-74
2022/02/26 03:16:39;;;;;;;15.83;8.63;;;6.00;99.90;;;6.16;78.13;103174.88;5095247;28;20051;-74
2022/02/26 03:19:09;;;;;;;22.63;9.10;;;6.00;99.90;;;6.05;78.76;103149.81;5094624;28;20066;-73
2022/02/26 03:21:40;;;;;;;18.35;8.75;;;6.00;99.90;;;6.29;79.00;103182.53;5094458;28;20097;-73
2022/02/26 03:24:11;;;;;;;23.50;8.77;;;6.00;99.90;;;6.33;79.04;103188.84;5094592;28;20066;-73
2022/02/26 03:26:39;;;;;;;;;;;6.10;99.90;;;6.37;79.54;103175.94;5095083;28;20451;-73
2022/02/26 03:29:10;;;;;;;24.07;8.70;;;6.10;99.90;;;6.46;80.10;103187.75;5094440;28;19926;-74
2022/02/26 03:31:38;;;;;;;29.40;9.30;;;6.20;99.90;;;6.43;80.41;103174.47;5076587;28;20051;-73
2022/02/26 03:34:07;;;;;;;26.33;9.40;;;6.20;99.90;;;6.44;80.61;103178.88;5094431;28;20044;-74
2022/02/26 03:36:36;;;;;;;22.25;9.55;;;6.30;99.90;;;5.77;80.46;103059.00;5094561;28;20044;-74
2022/02/26 03:39:06;;;;;;;21.05;9.20;;;6.20;99.90;;;6.55;80.99;103202.25;5094535;28;20036;-74
2022/02/26 03:41:39;;;;;;;25.20;9.00;;;6.30;99.90;;;6.45;81.26;103192.09;5094963;28;20113;-74
2022/02/26 03:44:10;;;;;;;21.55;9.65;;;6.30;99.90;;;6.56;80.72;103216.31;5098838;28;20051;-74
2022/02/26 03:46:41;;;;;;;22.95;8.68;;;6.30;99.90;;;6.57;80.38;103210.19;5104149;28;20040;-73
2022/02/26 03:49:09;;;;;;;19.35;8.20;;;6.30;99.90;;;6.36;79.19;103210.97;5103039;28;20465;-74
2022/02/26 03:51:40;;;;;;;14.68;8.07;;;6.20;99.90;;;6.39;78.94;103221.59;5084230;28;20044;-74
2022/02/26 03:54:08;;;;;;;19.50;9.27;;;6.20;99.90;;;6.35;79.06;103219.66;5097231;28;20455;-74
2022/02/26 03:56:36;;;;;;;22.27;9.48;;;6.20;99.90;;;6.35;78.78;103219.66;5094082;28;20060;-73
2022/02/26 03:59:05;;;;;;;17.42;8.40;;;6.20;99.90;;;6.35;79.60;103217.03;5096766;28;20050;-74
2022/02/26 04:01:35;;;;;;;15.37;8.77;;;6.10;99.90;;;6.34;79.64;103217.88;5095672;28;20044;-74
2022/02/26 04:04:04;;;;;;;10.85;7.55;;;6.20;99.90;;;6.22;78.45;103221.59;5095199;28;20405;-74
2022/02/26 04:06:33;;;;;;;13.18;7.65;;;6.10;99.90;;;5.93;78.16;103191.19;5094491;28;20447;-74
2022/02/26 04:09:02;;;;;;;19.37;9.47;;;5.90;99.90;;;5.02;78.60;103032.34;5094289;28;20465;-74
2022/02/26 04:11:33;;;;;;;16.27;8.63;;;5.80;99.90;;;6.06;79.53;103232.13;5075841;28;20463;-74
2022/02/26 04:14:01;;;;;;;13.93;8.20;;;5.80;99.90;;;6.13;79.67;103224.66;5093830;28;20497;-74
2022/02/26 04:16:34;;;;;;;20.00;8.77;;;5.90;99.90;;;6.13;79.71;103215.88;5093655;28;20090;-74
2022/02/26 04:19:03;;;;;;;18.35;9.05;;;5.90;99.90;;;6.27;80.08;103225.38;5093687;28;20713;-74
2022/02/26 04:21:33;;;;;;;12.73;8.10;;;6.00;99.90;;;5.31;79.74;103058.38;5075643;28;20486;-73
2022/02/26 04:24:02;;;;;;;12.10;8.37;;;6.10;99.90;;;6.06;79.71;103176.94;5093428;28;20054;-74
2022/02/26 04:26:32;;;;;;;15.57;8.40;;;6.00;99.90;;;6.10;79.50;103182.44;5093401;28;20436;-74
2022/02/26 04:29:01;;;;;;;16.08;8.40;;;6.10;99.90;;;6.17;79.25;103197.72;5093385;28;20052;-74
2022/02/26 04:31:30;;;;;;;19.00;8.80;;;6.10;99.90;;;6.22;79.18;103219.88;5093353;28;20051;-73
2022/02/26 04:34:00;;;;;;;17.83;9.67;;;6.00;99.90;;;6.09;79.00;103198.13;5093596;28;20048;-74
2022/02/26 04:36:31;;;;;;;16.48;8.68;;;5.90;99.90;;;6.09;79.21;103219.16;5093413;28;20044;-74
2022/02/26 04:38:59;;;;;;;14.35;8.60;;;5.90;99.90;;;5.86;79.31;103196.97;5075505;28;20044;-74
2022/02/26 04:41:27;;;;;;;24.70;9.75;;;5.80;99.90;;;5.65;80.55;103221.16;5093234;28;20123;-74
2022/02/26 04:43:57;;;;;;;17.67;9.70;;;5.50;99.90;;;5.52;82.40;103221.34;5093134;28;20048;-74
2022/02/26 04:46:25;;;;;;;16.30;9.70;;;5.30;99.90;;;5.46;83.46;103221.88;5093698;28;20058;-74
2022/02/26 04:48:56;;;;;;;16.90;9.60;;;5.10;99.90;;;5.59;84.35;103228.69;5075496;28;20052;-74
2022/02/26 04:51:26;;;;;;;23.13;10.03;;;5.20;99.90;;;5.50;84.25;103193.25;5093079;28;20073;-74
2022/02/26 04:53:57;;;;;;;32.93;10.13;;;5.40;99.90;;;5.85;83.59;103234.53;5093260;28;20044;-74
2022/02/26 04:56:25;;;;;;;19.73;9.40;;;5.50;99.90;;;5.76;83.58;103193.72;5093536;28;20075;-74
2022/02/26 04:58:55;;;;;;;15.53;9.30;;;5.70;99.90;;;5.87;83.68;103201.38;5093282;28;20048;-74
2022/02/26 05:01:23;;;;;;;26.90;10.27;;;5.80;99.90;;;5.93;83.22;103203.41;5096768;28;20036;-74
2022/02/26 05:03:52;;;;;;;19.77;10.93;;;5.80;99.90;;;5.94;83.92;103198.25;5097197;28;20040;-74
2022/02/26 05:06:20;;;;;;;14.82;10.23;;;5.90;99.90;;;5.46;83.56;103122.16;5097163;28;20164;-74
2022/02/26 05:08:50;;;;;;;14.30;8.73;;;5.80;99.90;;;6.12;83.13;103241.22;5097049;28;20044;-74
2022/02/26 05:11:19;;;;;;;14.27;10.32;;;5.80;99.90;;;6.19;83.62;103243.34;5097399;28;20052;-74
2022/02/26 05:13:47;;;;;;;13.83;9.60;;;5.90;99.90;;;6.27;83.59;103247.25;5097017;28;20097;-73
2022/02/26 05:16:16;;;;;;;12.35;8.65;;;6.00;99.90;;;6.33;83.53;103247.59;5096947;28;20093;-74
2022/02/26 05:18:44;;;;;;;16.65;8.48;;;6.10;99.90;;;5.67;83.44;103112.75;5078632;28;20386;-74
2022/02/26 05:21:13;;;;;;;15.52;8.60;;;6.20;99.90;;;6.41;82.67;103249.72;5097110;28;20040;-74
2022/02/26 05:23:43;;;;;;;17.30;7.53;;;6.20;99.90;;;6.42;82.37;103246.25;5096888;28;20071;-74
2022/02/26 05:26:13;;;;;;;;;;;6.20;99.90;;;6.48;81.90;103251.81;5079557;28;20405;-74
2022/02/26 05:28:42;;;;;;;12.10;7.05;;;6.30;99.90;;;6.52;81.50;103259.03;5078773;28;19920;-74
2022/02/26 05:31:11;;;;;;;18.23;8.33;;;6.30;99.90;;;6.20;81.27;103210.09;5096623;28;20405;-74
2022/02/26 05:33:40;;;;;;;22.60;8.33;;;6.30;99.90;;;6.20;81.11;103207.47;5078601;28;20043;-74
2022/02/26 05:36:09;;;;;;;23.80;9.37;;;6.30;99.90;;;6.46;81.31;103250.84;5096537;28;20048;-74
2022/02/26 05:38:38;;;;;;;22.93;9.43;;;6.30;99.90;;;6.39;80.72;103239.09;5096549;28;20040;-74
2022/02/26 05:41:07;;;;;;;22.43;9.63;;;6.30;99.90;;;6.48;80.89;103262.34;5096372;28;20040;-74
2022/02/26 05:43:37;;;;;;;22.53;9.20;;;6.30;99.90;;;6.45;80.62;103256.91;5096430;28;20497;-74
2022/02/26 05:46:06;;;;;;;23.50;9.05;;;6.30;99.90;;;6.41;80.02;103254.97;5096832;28;20044;-74
2022/02/26 05:48:34;;;;;;;18.30;10.90;;;6.30;99.90;;;6.31;79.05;103250.94;5096548;28;20044;-74
2022/02/26 05:51:03;;;;;;;18.33;9.47;;;6.20;99.90;;;6.06;78.68;103238.28;5096690;28;20044;-75
2022/02/26 05:53:32;;;;;;;21.03;8.63;;;6.00;99.90;;;5.97;80.21;103239.53;5078035;28;20052;-74
2022/02/26 05:56:00;;;;;;;26.08;9.23;;;5.90;99.90;;;5.69;80.96;103231.00;5096217;28;20048;-74
2022/02/26 05:58:31;;;;;;;17.27;9.37;;;5.70;99.90;;;5.74;82.24;103271.53;5096483;28;20048;-74
2022/02/26 06:01:02;;;;;;;16.07;8.57;;;5.50;99.90;;;5.56;82.66;103274.06;5096480;28;20454;-74
2022/02/26 06:03:33;;;;;;;17.08;7.60;;;5.30;99.90;;;5.52;84.44;103237.97;5096171;28;20086;-74
2022/02/26 06:06:02;;;;;;;18.03;8.63;;;5.30;99.90;;;5.62;85.08;103281.34;5078510;28;20060;-74
2022/02/26 06:08:33;;;;;;;17.50;9.30;;;5.30;99.90;;;5.46;85.36;103225.41;5096010;28;20160;-74
2022/02/26 06:11:01;;;;;;;17.87;11.10;;;5.40;99.90;;;5.70;85.77;103273.09;5095508;28;20125;-74
2022/02/26 06:13:33;;;;;;;20.07;9.90;;;5.40;99.90;;;5.40;86.26;103227.69;5096137;28;20456;-74
2022/02/26 06:16:04;;;;;;;15.33;8.20;;;5.30;99.90;;;5.82;86.31;103263.25;5096184;28;20043;-74
2022/02/26 06:18:32;;;;;;;26.73;10.10;;;5.50;99.90;;;5.79;86.18;103234.19;5096051;28;20079;-74
2022/02/26 06:21:01;;;;;;;26.33;8.63;;;5.60;99.90;;;6.00;86.45;103272.13;5095771;28;20396;-74
2022/02/26 06:23:32;;;;;;;28.83;9.73;;;5.70;99.90;;;5.93;86.35;103280.50;5095945;28;20456;-74
2022/02/26 06:26:01;;;;;;;23.60;9.23;;;5.70;99.90;;;5.64;87.16;103270.13;5095953;28;20036;-74
2022/02/26 06:28:32;;;;;;;25.27;8.83;;;5.50;99.90;;;5.60;87.14;103272.50;5077646;28;20048;-74
2022/02/26 06:31:02;;;;;;;23.37;10.03;;;5.40;99.90;;;5.38;87.00;103255.59;5095676;28;20047;-74
2022/02/26 06:33:31;;;;;;;52.25;25.67;;;5.30;99.90;;;5.30;87.17;103279.63;5077773;28;20534;-74
2022/02/26 06:36:00;;;;;;;76.00;47.33;;;5.10;99.90;;;5.18;88.51;103286.78;5077597;28;20047;-74
2022/02/26 06:38:28;;;;;;;28.97;15.23;;;5.00;99.90;;;5.17;88.31;103257.03;5095457;28;20437;-74
2022/02/26 06:40:57;;;;;;;28.17;16.00;;;5.10;99.90;;;5.25;87.20;103267.94;5095323;28;20405;-74
2022/02/26 06:43:28;;;;;;;18.00;9.77;;;5.10;99.90;;;5.05;87.08;103255.47;5095338;28;20095;-75
2022/02/26 06:45:57;;;;;;;24.83;10.73;;;5.00;99.90;;;5.27;87.79;103300.41;5095212;28;20068;-75
2022/02/26 06:48:27;;;;;;;24.43;9.83;;;5.00;99.90;;;5.08;87.08;103301.13;5095149;28;20044;-74
2022/02/26 06:50:55;;;;;;;26.15;15.18;;;4.80;99.90;;;5.12;88.36;103302.19;5095740;28;20040;-74
2022/02/26 06:53:24;;;;;;;25.20;11.30;;;4.90;99.90;;;5.05;89.49;103284.31;5095029;28;20097;-75
2022/02/26 06:55:52;;;;;;;28.53;11.30;;;4.90;99.90;;;4.99;90.48;103282.25;5094970;28;20040;-75
2022/02/26 06:58:21;;;;;;;23.73;11.70;;;4.90;99.90;;;4.92;91.02;103271.28;5095312;28;20052;-75
2022/02/26 07:00:49;;;;;;;27.93;12.13;;;4.90;99.90;;;5.35;91.05;103317.50;5094756;28;20048;-76
2022/02/26 07:03:18;;;;;;;26.77;11.17;;;5.00;99.90;;;5.47;90.54;103319.09;5095327;28;20044;-75
2022/02/26 07:05:48;;;;;;;21.57;11.07;;;5.20;99.90;;;5.33;90.40;103272.81;5095159;28;20063;-75
2022/02/26 07:08:17;;;;;;;24.20;11.82;;;5.30;99.90;;;5.67;90.48;103324.53;5076885;28;20098;-75
2022/02/26 07:10:45;;;;;;;30.50;11.00;;;5.40;99.90;;;5.69;90.37;103300.16;5094675;28;20124;-76
2022/02/26 07:13:14;;;;;;;23.37;11.30;;;5.50;99.90;;;5.83;89.94;103311.41;5095195;28;20085;-76
2022/02/26 07:15:42;;;;;;;23.85;12.45;;;5.60;99.90;;;5.83;89.06;103317.59;5094602;28;20439;-76
2022/02/26 07:18:11;;;;;;;27.65;13.73;;;5.70;99.90;;;6.09;89.17;103308.50;5094738;28;20044;-77
2022/02/26 07:20:39;;;;;;;30.05;12.90;;;5.90;99.90;;;6.31;87.90;103327.16;5094613;28;20131;-76
2022/02/26 07:23:09;;;;;;;33.83;14.07;;;6.10;99.90;;;6.38;86.65;103329.31;5093552;28;20036;-73
2022/02/26 07:25:42;;;;;;;30.23;14.13;;;6.20;99.90;;;6.30;86.39;103299.09;5094575;28;20047;-76
2022/02/26 07:28:11;;;;;;;29.58;13.93;;;6.30;99.90;;;6.75;85.46;103334.72;5094470;28;20449;-76
2022/02/26 07:30:43;;;;;;;31.58;14.32;;;6.50;99.90;;;6.99;84.51;103344.75;5094638;28;20047;-70
2022/02/26 07:33:12;;;;;;;28.37;14.73;;;6.70;99.90;;;5.82;83.03;103097.81;5094306;28;20117;-70
2022/02/26 07:35:41;;;;;;;31.17;14.90;;;6.90;99.90;;;6.93;82.28;103335.66;5094071;28;20051;-69
2022/02/26 07:38:11;;;;;;;29.17;14.25;;;6.80;99.90;;;6.74;82.18;103328.56;5094658;28;20032;-70
2022/02/26 07:40:41;;;;;;;30.85;15.52;;;6.70;99.90;;;6.83;82.86;103331.63;5094139;28;20047;-70
2022/02/26 07:43:10;;;;;;;26.23;14.88;;;6.70;99.90;;;6.26;81.93;103181.50;5094522;28;20054;-77
2022/02/26 07:45:39;;;;;;;28.73;15.23;;;6.90;99.90;;;7.29;81.31;103337.47;5094149;28;20040;-71
2022/02/26 07:48:10;;;;;;;28.92;16.38;;;7.00;99.90;;;7.58;81.38;103347.66;5094064;28;20417;-70
2022/02/26 07:50:39;;;;;;;35.67;17.52;;;7.20;99.90;;;7.58;79.66;103365.19;5093982;28;20113;-68
2022/02/26 07:53:08;;;;;;;32.40;17.30;;;7.40;99.90;;;7.39;79.80;103315.09;5094141;28;20048;-70
2022/02/26 07:55:40;;;;;;;30.15;16.77;;;7.40;99.90;;;7.52;79.59;103323.66;5093745;28;20055;-70
2022/02/26 07:58:09;;;;;;;33.30;16.77;;;7.50;99.90;;;7.67;78.98;103349.81;5093837;28;20087;-72
2022/02/26 08:00:38;;;;;;;33.35;19.00;;;7.40;99.90;;;7.62;79.29;103320.63;5093867;28;20101;-75
2022/02/26 08:03:06;;;;;;;30.25;17.08;;;7.50;99.90;;;7.78;79.47;103331.03;5075659;28;20556;-71
2022/02/26 08:05:35;;;;;;;29.98;18.27;;;7.60;99.90;;;7.59;80.06;103336.28;5075327;28;20052;-71
2022/02/26 08:08:07;;;;;;;34.33;17.75;;;7.50;99.90;;;7.17;80.97;103345.66;5093761;28;20040;-70
2022/02/26 08:10:37;;;;;;;28.27;18.02;;;7.10;99.90;;;6.54;81.80;103207.44;5094113;28;20101;-71
2022/02/26 08:13:06;;;;;;;30.02;18.65;;;7.00;99.90;;;6.54;82.19;103246.88;5093953;28;20473;-76
2022/02/26 08:15:35;;;;;;;33.85;20.92;;;6.90;99.90;;;6.43;83.47;103271.72;5075559;28;20050;-75
2022/02/26 08:18:04;;;;;;;31.25;20.55;;;6.70;99.90;;;6.38;85.21;103337.19;5093326;28;20036;-75
2022/02/26 08:20:32;;;;;;;35.10;19.63;;;6.40;99.90;;;6.59;86.13;103351.44;5093541;28;20039;-75
2022/02/26 08:23:01;;;;;;;40.10;21.75;;;6.30;99.90;;;7.01;85.56;103353.63;5093875;28;20048;-75
2022/02/26 08:25:29;;;;;;;33.88;22.02;;;6.60;99.90;;;7.12;84.27;103347.13;5095477;28;20094;-76
2022/02/26 08:27:59;;;;;;;33.78;22.10;;;6.90;99.90;;;7.41;83.81;103345.94;5095618;28;20048;-76
2022/02/26 08:30:28;;;;;;;34.70;21.35;;;7.20;99.90;;;7.99;82.00;103358.38;5093836;28;20497;-75
2022/02/26 08:33:00;;;;;;;37.03;21.73;;;7.60;99.90;;;8.39;80.28;103366.38;5093841;28;20074;-75
2022/02/26 08:35:29;;;;;;;36.90;20.40;;;8.10;99.90;;;8.65;78.98;103364.91;5093007;28;20093;-75
2022/02/26 08:37:57;;;;;;;33.58;20.92;;;8.40;99.90;;;8.17;79.22;103371.47;5075317;28;20400;-76
2022/02/26 08:40:26;;;;;;;31.88;21.35;;;8.10;99.90;;;8.01;80.52;103376.91;5075595;28;20048;-75
2022/02/26 08:42:55;;;;;;;36.95;22.55;;;7.90;99.90;;;7.39;81.98;103365.13;5093069;28;20455;-75
2022/02/26 08:45:24;;;;;;;38.25;23.42;;;7.30;99.90;;;6.20;83.56;103212.72;5093252;28;20052;-75
2022/02/26 08:47:53;;;;;;;34.57;23.80;;;6.90;99.90;;;6.85;84.03;103313.31;5093068;28;20044;-75
2022/02/26 08:50:22;;;;;;;37.28;23.35;;;6.90;99.90;;;7.39;83.34;103366.03;5093123;28;20775;-75
2022/02/26 08:52:51;;;;;;;41.65;23.05;;;7.10;99.90;;;7.56;82.82;103372.09;5093393;28;20063;-74
2022/02/26 08:55:20;;;;;;;38.70;24.50;;;7.30;99.90;;;7.69;82.23;103375.41;5093009;28;20062;-74
2022/02/26 08:57:48;;;;;;;36.35;22.25;;;7.40;99.90;;;7.59;82.78;103357.34;5093232;28;20052;-74
2022/02/26 09:00:18;;;;;;;39.85;24.38;;;7.40;99.90;;;7.59;82.52;103373.16;5093414;28;20093;-74
2022/02/26 09:02:48;;;;;;;38.83;24.83;;;7.30;99.90;;;7.57;81.89;103344.94;5093181;28;20043;-74
2022/02/26 09:05:22;;;;;;;40.95;23.83;;;7.50;99.90;;;8.35;81.43;103397.81;5075160;28;20051;-75
2022/02/26 09:07:50;;;;;;;33.95;22.38;;;8.00;99.90;;;8.58;80.34;103305.69;5093005;28;20032;-74
2022/02/26 09:10:19;;;;;;;38.78;23.13;;;8.50;99.90;;;9.65;77.94;103362.06;5092789;28;20093;-76
2022/02/26 09:12:48;;;;;;;34.13;21.52;;;9.20;99.90;;;9.99;75.23;103362.50;5093026;28;20067;-75
2022/02/26 09:15:16;;;;;;;32.30;20.60;;;9.80;99.90;;;9.36;74.09;103176.00;5092793;28;20230;-75
2022/02/26 09:17:47;;;;;;;33.45;20.42;;;10.30;99.90;;;11.44;71.59;103376.53;5092984;28;20098;-75
2022/02/26 09:20:15;;;;;;;31.30;20.08;;;11.10;99.90;;;11.74;69.19;103337.78;5093114;28;20044;-74
2022/02/26 09:22:44;;;;;;;28.83;17.75;;;11.70;99.90;;;11.67;68.42;103386.16;5092845;28;20051;-74
2022/02/26 09:25:14;;;;;;;29.27;16.80;;;11.50;99.90;;;11.09;68.56;103376.25;5092720;28;20089;-74
2022/02/26 09:27:44;;;;;;;27.65;16.98;;;11.10;99.90;;;11.21;68.37;103355.44;5092702;28;20040;-75
2022/02/26 09:30:16;;;;;;;25.52;15.10;;;11.10;99.90;;;10.85;67.12;103234.22;5093072;28;20074;-74
2022/02/26 09:32:47;;;;;;;23.55;13.95;;;11.30;99.90;;;11.24;65.93;103323.75;5092673;28;20052;-75
2022/02/26 09:35:18;;;;;;;22.98;13.23;;;11.40;99.90;;;11.22;66.86;103399.63;5092879;28;20451;-75
2022/02/26 09:37:48;;;;;;;24.97;13.40;;;11.00;99.90;;;10.73;67.26;103395.31;5092721;28;20040;-74
2022/02/26 09:40:20;;;;;;;21.00;12.23;;;10.50;99.90;;;10.74;67.73;103397.09;5092612;28;20279;-73
2022/02/26 09:42:50;;;;;;;24.48;14.00;;;10.40;99.90;;;10.72;68.36;103396.13;5092969;28;20051;-74
2022/02/26 09:45:19;;;;;;;21.95;13.05;;;10.40;99.90;;;10.10;69.14;103402.63;5074641;28;20597;-74
2022/02/26 09:47:47;;;;;;;21.20;11.00;;;9.90;99.90;;;9.88;69.34;103356.81;5096081;28;20051;-74
2022/02/26 09:50:17;;;;;;;17.55;10.95;;;9.80;99.90;;;10.81;67.65;103406.16;5095988;28;20040;-73
2022/02/26 09:52:50;;;;;;;28.90;12.85;;;10.30;99.90;;;10.73;66.41;103397.03;5096287;28;20051;-74
2022/02/26 09:55:18;;;;;;;24.40;12.30;;;10.50;99.90;;;10.40;66.97;103411.69;5096431;28;20058;-73
2022/02/26 09:57:47;;;;;;;22.08;10.48;;;10.20;99.90;;;10.10;65.88;103381.47;5095878;28;20109;-73
2022/02/26 10:00:17;;;;;;;20.25;11.80;;;10.10;99.90;;;10.54;67.54;103400.78;5095911;28;20476;-73
2022/02/26 10:02:50;;;;;;;16.75;10.65;;;10.10;99.90;;;10.78;66.07;103400.78;5096501;28;20040;-74
2022/02/26 10:05:20;;;;;;;21.42;11.98;;;10.40;99.90;;;10.66;65.09;103406.53;5096319;28;20122;-73
2022/02/26 10:07:50;;;;;;;21.75;11.25;;;10.70;99.90;;;11.31;64.44;103410.53;5095691;28;20508;-73
2022/02/26 10:10:27;;;;;;;22.13;10.13;;;11.00;99.90;;;10.85;64.26;103365.69;5095988;28;20048;-74
2022/02/26 10:12:58;;;;;;;25.00;11.20;;;11.00;99.90;;;11.20;63.35;103399.59;5095588;28;20112;-74
2022/02/26 10:15:35;;;;;;;33.10;11.35;;;11.10;99.90;;;11.25;62.63;103400.63;5095550;28;20047;-74
2022/02/26 10:18:07;;;;;;;27.35;11.52;;;11.20;99.90;;;10.60;63.28;103385.13;5095997;28;20062;-73
2022/02/26 10:20:49;;;;;;;25.30;9.82;;;10.80;99.90;;;10.55;63.70;103386.69;5096177;28;20193;-73
2022/02/26 10:23:19;;;;;;;25.75;9.40;;;10.60;99.90;;;10.53;63.41;103391.03;5077673;28;20560;-73
2022/02/26 10:25:48;;;;;;;24.58;10.73;;;10.50;99.90;;;10.65;63.34;103402.06;5095442;28;20041;-73
2022/02/26 10:28:17;;;;;;;23.55;9.00;;;10.50;99.90;;;10.31;62.74;103390.19;5095472;28;20077;-73